Time;durP1;ratioP1;P1;durP2;ratioP2;P2;SDS_P1;SDS_P2;PMS_P1;PMS_P2;Temp;Humidity;BMP_temperature;BMP_pressure;BME280_temperature;BME280_humidity;BME280_pressure;Samples;Min_cycle;Max_cycle;Signal;HPM_P1;HPM_P2
2022/07/24 00:00:39;;;;;;;11.77;6.90;;;21.50;99.90;;;;;;4996793;28;20644;-86
2022/07/24 00:03:05;;;;;;;7.13;5.70;;;21.40;99.90;;;;;;4991938;28;20237;-84
2022/07/24 00:05:31;;;;;;;6.67;6.00;;;21.40;99.90;;;;;;4994560;28;20446;-84
2022/07/24 00:07:57;;;;;;;7.77;6.43;;;21.40;99.90;;;;;;5010996;28;20260;-84
2022/07/24 00:10:22;;;;;;;7.73;6.50;;;21.40;99.90;;;;;;4991956;28;20980;-84
2022/07/24 00:12:48;;;;;;;9.67;6.37;;;21.40;99.90;;;;;;4993815;28;20218;-83
2022/07/24 00:15:14;;;;;;;7.60;6.57;;;21.30;99.90;;;;;;4996086;28;20184;-84
2022/07/24 00:17:40;;;;;;;7.20;6.10;;;21.30;99.90;;;;;;4991154;28;20577;-84
2022/07/24 00:20:09;;;;;;;6.40;5.80;;;21.30;99.90;;;;;;4997549;28;20174;-86
2022/07/24 00:22:34;;;;;;;6.97;5.77;;;21.20;99.90;;;;;;4995063;28;20437;-85
2022/07/24 00:25:00;;;;;;;7.07;5.80;;;21.20;99.90;;;;;;4999184;28;20860;-85
2022/07/24 00:27:26;;;;;;;11.27;5.77;;;21.20;99.90;;;;;;4989493;28;20222;-83
2022/07/24 00:29:51;;;;;;;6.97;5.50;;;21.20;99.90;;;;;;4992133;28;20186;-83
2022/07/24 00:32:17;;;;;;;6.23;5.63;;;21.10;99.90;;;;;;4988930;28;20191;-84
2022/07/24 00:34:42;;;;;;;7.13;6.00;;;21.10;99.90;;;;;;4990349;28;20244;-85
2022/07/24 00:37:08;;;;;;;5.90;5.30;;;21.10;99.90;;;;;;4987753;28;20268;-83
2022/07/24 00:39:33;;;;;;;7.70;6.90;;;21.10;99.90;;;;;;4989402;28;20563;-83
2022/07/24 00:41:59;;;;;;;8.37;5.67;;;21.00;99.90;;;;;;4990438;28;20731;-84
2022/07/24 00:44:25;;;;;;;7.87;6.17;;;21.00;99.90;;;;;;4986838;28;20880;-83
2022/07/24 00:46:50;;;;;;;8.40;7.50;;;21.00;99.90;;;;;;4985328;28;20213;-83
2022/07/24 00:49:19;;;;;;;6.40;5.80;;;21.00;99.90;;;;;;4990073;28;20186;-83
2022/07/24 00:51:48;;;;;;;7.47;5.97;;;21.00;99.90;;;;;;4990227;28;20566;-82
2022/07/24 00:54:15;;;;;;;7.43;5.70;;;21.00;99.90;;;;;;4987760;28;20439;-82
2022/07/24 00:56:42;;;;;;;8.03;6.47;;;20.90;99.90;;;;;;4984769;28;20474;-83
2022/07/24 00:59:08;;;;;;;6.93;6.30;;;20.90;99.90;;;;;;4992987;28;20442;-83
2022/07/24 01:01:34;;;;;;;11.10;6.47;;;20.90;99.90;;;;;;5003245;28;20440;-85
2022/07/24 01:03:59;;;;;;;13.07;6.33;;;20.90;99.90;;;;;;4994408;28;20190;-84
2022/07/24 01:06:25;;;;;;;6.13;5.53;;;20.80;99.90;;;;;;4991376;28;20237;-85
2022/07/24 01:08:51;;;;;;;8.23;7.47;;;20.80;99.90;;;;;;4995857;28;20217;-86
2022/07/24 01:11:18;;;;;;;7.60;6.87;;;20.70;99.90;;;;;;4989829;28;20455;-84
2022/07/24 01:13:44;;;;;;;10.33;7.23;;;20.60;99.90;;;;;;4994251;28;20290;-83
2022/07/24 01:16:10;;;;;;;10.57;6.57;;;20.60;99.90;;;;;;4992905;28;20521;-85
2022/07/24 01:18:36;;;;;;;8.27;6.73;;;20.60;99.90;;;;;;4996843;28;20194;-83
2022/07/24 01:21:04;;;;;;;8.03;7.23;;;20.50;99.90;;;;;;4992815;28;20193;-85
2022/07/24 01:23:29;;;;;;;10.60;6.53;;;20.50;99.90;;;;;;4990388;28;20439;-83
2022/07/24 01:25:55;;;;;;;9.33;6.97;;;20.50;99.90;;;;;;4995919;28;20833;-85
2022/07/24 01:28:20;;;;;;;10.60;7.60;;;20.50;99.90;;;;;;4989692;28;20654;-85
2022/07/24 01:30:46;;;;;;;10.63;7.43;;;20.50;99.90;;;;;;4993309;28;20193;-83
2022/07/24 01:33:12;;;;;;;8.97;7.40;;;20.40;99.90;;;;;;4988117;28;20560;-85
2022/07/24 01:35:38;;;;;;;8.67;7.80;;;20.40;99.90;;;;;;4989436;28;20199;-84
2022/07/24 01:38:03;;;;;;;7.57;6.87;;;20.30;99.90;;;;;;4988204;28;20476;-82
2022/07/24 01:40:29;;;;;;;11.17;8.50;;;20.30;99.90;;;;;;4992578;28;20217;-84
2022/07/24 01:42:54;;;;;;;8.77;7.43;;;20.30;99.90;;;;;;4992949;28;20222;-83
2022/07/24 01:45:20;;;;;;;11.23;8.10;;;20.30;99.90;;;;;;4994133;28;20275;-83
2022/07/24 01:47:46;;;;;;;8.07;7.27;;;20.30;99.90;;;;;;4989260;28;20625;-83
2022/07/24 01:50:13;;;;;;;9.83;8.03;;;20.30;99.90;;;;;;4995113;28;20571;-87
2022/07/24 01:52:39;;;;;;;9.90;8.50;;;20.30;99.90;;;;;;4993617;28;20521;-84
2022/07/24 01:55:05;;;;;;;9.23;8.33;;;20.30;99.90;;;;;;4997994;28;20472;-82
2022/07/24 01:57:32;;;;;;;10.13;7.90;;;20.20;99.90;;;;;;4993519;28;20485;-84
2022/07/24 01:59:59;;;;;;;10.10;7.60;;;20.20;99.90;;;;;;4997548;28;20467;-82
2022/07/24 02:02:25;;;;;;;9.40;7.57;;;20.10;99.90;;;;;;4996806;28;20439;-82
2022/07/24 02:04:50;;;;;;;10.70;7.97;;;20.10;99.90;;;;;;4994178;28;20435;-82
2022/07/24 02:07:16;;;;;;;12.43;8.40;;;20.10;99.90;;;;;;4996330;28;20568;-83
2022/07/24 02:09:41;;;;;;;9.77;8.50;;;20.10;99.90;;;;;;4994179;28;20186;-82
2022/07/24 02:12:07;;;;;;;11.00;8.63;;;20.00;99.90;;;;;;4996860;28;20193;-83
2022/07/24 02:14:32;;;;;;;12.40;8.30;;;20.00;99.90;;;;;;4994836;28;21989;-84
2022/07/24 02:16:58;;;;;;;11.57;8.13;;;20.00;1.00;;;;;;4996615;28;20246;-83
2022/07/24 02:19:24;;;;;;;9.13;7.57;;;19.90;1.00;;;;;;4997057;28;20707;-84
2022/07/24 02:21:50;;;;;;;11.67;8.37;;;19.90;1.00;;;;;;4993708;28;20243;-84
2022/07/24 02:24:16;;;;;;;12.20;8.03;;;19.90;1.00;;;;;;4997476;28;20188;-83
2022/07/24 02:26:41;;;;;;;15.00;8.10;;;19.90;1.00;;;;;;4993031;28;20482;-83
2022/07/24 02:29:07;;;;;;;9.43;8.50;;;19.90;1.00;;;;;;4995728;28;20465;-82
2022/07/24 02:31:33;;;;;;;9.97;7.27;;;19.90;1.00;;;;;;4994150;28;20188;-83
2022/07/24 02:33:58;;;;;;;8.73;6.80;;;19.80;1.00;;;;;;4997512;28;20206;-83
2022/07/24 02:36:24;;;;;;;9.60;6.87;;;19.80;1.00;;;;;;4995127;28;20465;-84
2022/07/24 02:38:49;;;;;;;11.60;6.40;;;19.80;1.00;;;;;;4996796;28;20206;-84
2022/07/24 02:41:15;;;;;;;6.97;6.33;;;19.70;1.00;;;;;;4996461;28;20189;-84
2022/07/24 02:43:41;;;;;;;9.37;7.30;;;19.70;1.00;;;;;;4998510;28;20192;-84
2022/07/24 02:46:06;;;;;;;8.57;7.50;;;19.60;1.00;;;;;;4997158;28;20295;-83
2022/07/24 02:48:32;;;;;;;9.20;5.93;;;19.60;1.00;;;;;;4991891;28;20673;-84
2022/07/24 02:50:59;;;;;;;8.53;7.37;;;19.50;1.00;;;;;;4996078;28;20181;-82
2022/07/24 02:53:24;;;;;;;9.47;6.30;;;19.50;1.00;;;;;;4992161;28;20576;-84
2022/07/24 02:55:50;;;;;;;12.93;7.73;;;19.40;1.00;;;;;;4995896;28;20460;-84
2022/07/24 02:58:16;;;;;;;11.43;7.47;;;19.40;1.00;;;;;;4993196;28;20239;-84
2022/07/24 03:00:41;;;;;;;8.53;7.10;;;19.40;1.00;;;;;;4994767;28;20211;-82
2022/07/24 03:03:07;;;;;;;12.97;7.40;;;19.40;3.50;;;;;;4989289;28;20196;-85
2022/07/24 03:05:32;;;;;;;10.67;8.10;;;19.40;17.30;;;;;;4992622;28;20207;-83
2022/07/24 03:07:58;;;;;;;12.07;9.87;;;19.40;18.40;;;;;;4993653;28;20181;-82
2022/07/24 03:10:24;;;;;;;9.93;8.57;;;19.40;25.70;;;;;;4995871;28;20183;-82
2022/07/24 03:12:49;;;;;;;15.97;9.00;;;19.40;48.60;;;;;;4990280;28;20199;-83
2022/07/24 03:15:15;;;;;;;11.83;9.27;;;19.40;45.10;;;;;;4996210;28;20196;-84
2022/07/24 03:17:52;;;;;;;11.70;9.47;;;19.40;46.40;;;;;;4989088;28;20216;-82
2022/07/24 03:20:18;;;;;;;9.93;8.87;;;19.40;47.50;;;;;;4992755;28;20438;-83
2022/07/24 03:22:44;;;;;;;11.83;9.13;;;19.40;20.30;;;;;;5007093;28;20853;-82
2022/07/24 03:25:10;;;;;;;11.87;9.47;;;19.40;12.20;;;;;;4995153;28;20442;-82
2022/07/24 03:27:36;;;;;;;12.60;9.97;;;19.40;1.00;;;;;;4984889;28;20490;-82
2022/07/24 03:30:03;;;;;;;11.70;10.27;;;19.40;1.00;;;;;;4992222;28;20270;-82
2022/07/24 03:32:29;;;;;;;11.90;10.67;;;19.40;1.00;;;;;;4992663;28;20463;-83
2022/07/24 03:34:54;;;;;;;14.57;9.77;;;19.40;1.00;;;;;;4989228;28;20437;-82
2022/07/24 03:37:20;;;;;;;11.00;9.60;;;19.40;1.00;;;;;;4991801;28;20205;-83
2022/07/24 03:39:45;;;;;;;13.90;9.47;;;19.40;1.00;;;;;;4991245;28;20204;-83
2022/07/24 03:42:11;;;;;;;9.83;8.90;;;19.40;1.00;;;;;;4988444;28;20190;-82
2022/07/24 03:44:36;;;;;;;16.27;10.30;;;19.40;1.00;;;;;;4989451;28;21107;-82
2022/07/24 03:47:02;;;;;;;14.33;9.77;;;19.40;1.00;;;;;;4991353;28;20249;-83
2022/07/24 03:49:28;;;;;;;10.33;9.23;;;19.40;1.00;;;;;;4989836;28;20180;-84
2022/07/24 03:51:53;;;;;;;20.50;10.50;;;19.40;1.00;;;;;;4991959;28;20563;-82
2022/07/24 03:54:19;;;;;;;13.20;9.97;;;19.40;1.00;;;;;;4991829;28;20184;-83
2022/07/24 03:56:44;;;;;;;11.20;9.73;;;19.40;1.00;;;;;;4990537;28;20212;-83
2022/07/24 03:59:10;;;;;;;14.63;9.80;;;19.40;1.00;;;;;;4993151;28;20269;-84
2022/07/24 04:01:35;;;;;;;12.10;8.73;;;19.40;9.30;;;;;;4992331;28;20189;-83
2022/07/24 04:04:04;;;;;;;12.27;9.73;;;19.40;43.30;;;;;;4993484;28;20199;-83
2022/07/24 04:06:32;;;;;;;14.20;10.50;;;19.40;83.20;;;;;;4988346;28;20222;-83
2022/07/24 04:08:58;;;;;;;11.37;9.13;;;19.30;98.00;;;;;;4995872;28;20468;-85
2022/07/24 04:11:24;;;;;;;11.70;8.73;;;19.40;99.90;;;;;;4992814;28;20492;-84
2022/07/24 04:13:49;;;;;;;11.40;9.90;;;19.40;99.90;;;;;;4990399;28;20885;-84
2022/07/24 04:16:15;;;;;;;11.77;9.07;;;19.40;99.90;;;;;;4992476;28;20478;-84
2022/07/24 04:18:40;;;;;;;10.97;9.93;;;19.40;90.00;;;;;;4994175;28;20220;-84
2022/07/24 04:21:06;;;;;;;10.57;9.23;;;19.40;75.10;;;;;;4995313;28;20676;-84
2022/07/24 04:23:31;;;;;;;10.73;8.90;;;19.50;91.90;;;;;;4992693;28;20193;-84
2022/07/24 04:25:57;;;;;;;15.33;9.57;;;19.50;65.10;;;;;;4994635;28;20253;-83
2022/07/24 04:28:23;;;;;;;12.63;8.90;;;19.50;38.00;;;;;;4989586;28;20182;-84
2022/07/24 04:30:49;;;;;;;12.10;9.00;;;19.60;13.30;;;;;;4992524;28;20458;-84
2022/07/24 04:33:14;;;;;;;11.37;9.90;;;19.70;1.00;;;;;;4991648;28;20182;-82
2022/07/24 04:35:40;;;;;;;12.50;9.83;;;19.70;1.00;;;;;;4993542;28;20179;-82
2022/07/24 04:38:05;;;;;;;9.70;8.70;;;19.80;1.00;;;;;;4988739;28;20653;-83
2022/07/24 04:40:31;;;;;;;10.97;7.80;;;19.90;1.00;;;;;;4995924;28;20184;-84
2022/07/24 04:42:56;;;;;;;11.00;9.90;;;20.00;1.00;;;;;;4997105;28;20222;-82
2022/07/24 04:45:22;;;;;;;9.87;8.87;;;20.10;1.00;;;;;;4989419;28;20263;-83
2022/07/24 04:47:48;;;;;;;12.43;8.60;;;20.20;1.00;;;;;;4992880;28;20270;-83
2022/07/24 04:50:13;;;;;;;10.30;8.40;;;20.30;1.00;;;;;;4995811;28;20448;-83
2022/07/24 04:52:39;;;;;;;9.53;8.53;;;20.40;1.00;;;;;;4992794;28;20194;-84
2022/07/24 04:55:05;;;;;;;11.23;8.07;;;20.60;1.00;;;;;;4989994;28;20190;-84
2022/07/24 04:57:30;;;;;;;10.13;8.93;;;20.80;1.00;;;;;;4989604;28;20345;-84
2022/07/24 04:59:56;;;;;;;12.57;8.97;;;20.90;1.00;;;;;;4990114;28;20966;-84
2022/07/24 05:02:21;;;;;;;11.97;9.70;;;21.00;99.90;;;;;;4988765;28;20191;-84
2022/07/24 05:04:47;;;;;;;12.27;8.07;;;21.20;99.90;;;;;;4991672;28;20215;-84
2022/07/24 05:07:13;;;;;;;11.00;8.17;;;21.30;99.90;;;;;;4989262;28;20263;-82
2022/07/24 05:09:38;;;;;;;13.53;9.60;;;21.30;99.90;;;;;;4985488;28;20202;-82
2022/07/24 05:12:04;;;;;;;10.30;9.17;;;21.40;99.90;;;;;;4981365;28;20557;-82
2022/07/24 05:14:29;;;;;;;15.60;8.60;;;21.40;99.90;;;;;;4984563;28;20722;-82
2022/07/24 05:16:55;;;;;;;11.93;8.60;;;21.50;99.90;;;;;;4982857;28;20310;-82
2022/07/24 05:19:21;;;;;;;9.77;8.83;;;21.60;99.90;;;;;;4983778;28;20216;-82
2022/07/24 05:21:46;;;;;;;13.67;8.87;;;21.70;99.90;;;;;;4981442;28;20254;-81
2022/07/24 05:24:12;;;;;;;12.97;9.60;;;21.80;99.90;;;;;;4987538;28;20197;-82
2022/07/24 05:26:37;;;;;;;10.13;9.00;;;21.90;99.90;;;;;;4981995;28;20214;-83
2022/07/24 05:29:05;;;;;;;10.80;9.17;;;22.00;99.90;;;;;;4986881;28;20328;-83
2022/07/24 05:31:32;;;;;;;9.50;8.50;;;22.10;99.90;;;;;;4981880;28;20286;-82
2022/07/24 05:33:58;;;;;;;13.80;10.27;;;22.30;99.90;;;;;;4989059;28;20449;-83
2022/07/24 05:36:24;;;;;;;11.33;8.37;;;22.30;99.90;;;;;;4979634;28;20516;-82
2022/07/24 05:38:50;;;;;;;9.77;8.80;;;22.40;99.90;;;;;;4985975;28;20860;-84
2022/07/24 05:41:16;;;;;;;11.13;9.47;;;22.40;99.90;;;;;;4983349;28;20454;-82
2022/07/24 05:43:41;;;;;;;12.67;9.20;;;22.50;99.90;;;;;;4990252;28;20265;-83
2022/07/24 05:46:07;;;;;;;11.03;8.53;;;22.70;99.90;;;;;;4986233;28;20214;-82
2022/07/24 05:48:32;;;;;;;13.87;9.20;;;22.80;99.90;;;;;;4990441;28;20229;-82
2022/07/24 05:50:58;;;;;;;12.93;8.57;;;22.90;99.90;;;;;;4984594;28;20199;-83
2022/07/24 05:53:24;;;;;;;15.00;8.53;;;23.10;99.90;;;;;;4990770;28;20223;-83
2022/07/24 05:55:50;;;;;;;13.73;8.77;;;23.30;99.90;;;;;;4986554;28;20220;-84
2022/07/24 05:58:16;;;;;;;12.70;9.00;;;23.60;99.90;;;;;;4987416;28;20791;-84
2022/07/24 06:00:42;;;;;;;9.30;8.30;;;24.10;99.90;;;;;;4983545;28;20523;-83
2022/07/24 06:03:08;;;;;;;8.63;7.80;;;25.50;99.90;;;;;;4989347;28;20930;-83
2022/07/24 06:05:33;;;;;;;9.20;8.20;;;29.00;99.90;;;;;;4989389;28;20445;-85
2022/07/24 06:07:59;;;;;;;9.53;8.47;;;32.50;99.90;;;;;;4986769;28;20301;-85
2022/07/24 06:10:25;;;;;;;9.80;8.90;;;35.20;99.90;;;;;;4988678;28;20242;-85
2022/07/24 06:12:50;;;;;;;10.90;9.07;;;37.30;99.90;;;;;;4989876;28;20585;-84
2022/07/24 06:15:16;;;;;;;11.13;10.13;;;39.20;99.90;;;;;;4990361;28;20206;-84
2022/07/24 06:17:42;;;;;;;10.57;9.57;;;40.80;99.90;;;;;;4986455;28;20226;-83
2022/07/24 06:20:08;;;;;;;14.63;13.10;;;42.10;99.90;;;;;;4988918;28;20779;-84
2022/07/24 06:22:34;;;;;;;13.83;12.53;;;43.50;99.90;;;;;;4993860;28;20195;-86
2022/07/24 06:25:00;;;;;;;13.60;12.10;;;44.40;99.20;;;;;;4989074;28;20458;-84
2022/07/24 06:27:25;;;;;;;16.10;14.67;;;45.40;94.40;;;;;;4985748;28;20723;-86
2022/07/24 06:29:51;;;;;;;16.23;14.83;;;46.30;89.40;;;;;;4989284;28;20183;-83
2022/07/24 06:32:16;;;;;;;13.77;12.57;;;46.90;79.00;;;;;;4984497;28;20245;-82
2022/07/24 06:34:42;;;;;;;16.77;14.63;;;47.60;68.50;;;;;;4989843;28;20179;-83
2022/07/24 06:37:10;;;;;;;15.80;14.40;;;48.20;60.40;;;;;;4981639;28;20709;-83
2022/07/24 06:39:35;;;;;;;16.77;15.00;;;49.10;56.20;;;;;;4992476;28;20190;-84
2022/07/24 06:42:01;;;;;;;15.30;13.90;;;50.30;51.90;;;;;;4985234;28;22345;-82
2022/07/24 06:44:26;;;;;;;16.67;15.10;;;51.50;47.90;;;;;;5005057;28;20190;-83
2022/07/24 06:46:52;;;;;;;17.70;16.07;;;53.10;45.50;;;;;;4982472;28;20379;-83
2022/07/24 06:49:17;;;;;;;17.38;15.90;;;54.30;41.60;;;;;;4994125;28;20589;-83
2022/07/24 06:51:43;;;;;;;16.35;14.85;;;55.50;39.50;;;;;;4987485;28;20318;-84
2022/07/24 06:54:09;;;;;;;16.27;14.80;;;56.20;34.70;;;;;;4994561;28;20187;-84
2022/07/24 06:56:34;;;;;;;15.48;14.23;;;56.90;31.90;;;;;;4991194;28;20207;-84
2022/07/24 06:59:00;;;;;;;15.95;14.57;;;57.30;28.20;;;;;;4991208;28;20179;-84
2022/07/24 07:01:26;;;;;;;15.98;14.57;;;57.80;26.00;;;;;;4990342;28;20203;-83
2022/07/24 07:03:55;;;;;;;16.50;15.05;;;58.50;24.50;;;;;;4991537;28;20214;-84
2022/07/24 07:06:21;;;;;;;13.60;12.40;;;59.20;23.30;;;;;;4989415;28;20571;-83
2022/07/24 07:08:47;;;;;;;12.82;11.73;;;59.90;22.40;;;;;;4988422;28;20182;-83
2022/07/24 07:11:13;;;;;;;12.70;11.63;;;60.20;22.20;;;;;;4990026;28;20172;-83
2022/07/24 07:13:38;;;;;;;12.95;11.85;;;60.60;20.90;;;;;;4988092;28;20199;-83
2022/07/24 07:16:04;;;;;;;15.15;13.63;;;60.90;19.90;;;;;;4989768;28;20771;-84
2022/07/24 07:18:30;;;;;;;13.60;12.50;;;61.30;18.90;;;;;;4986548;28;20195;-84
2022/07/24 07:20:56;;;;;;;13.60;12.43;;;61.30;17.40;;;;;;4987672;28;20590;-83
2022/07/24 07:23:23;;;;;;;13.93;12.50;;;61.40;16.00;;;;;;4987445;28;20651;-84
2022/07/24 07:25:49;;;;;;;12.82;11.82;;;61.40;14.80;;;;;;5000374;28;20254;-83
2022/07/24 07:28:15;;;;;;;11.32;10.32;;;60.10;11.80;;;;;;4986659;28;20191;-83
2022/07/24 07:30:41;;;;;;;13.63;12.48;;;59.00;9.20;;;;;;4983621;28;20184;-82
2022/07/24 07:33:06;;;;;;;13.45;12.15;;;58.40;8.00;;;;;;4990144;28;20194;-82
2022/07/24 07:35:32;;;;;;;13.40;12.20;;;57.90;6.70;;;;;;4984581;28;20191;-83
2022/07/24 07:37:57;;;;;;;12.95;11.85;;;57.20;5.70;;;;;;4982815;28;20722;-83
2022/07/24 07:40:24;;;;;;;12.50;11.60;;;56.60;5.00;;;;;;4988709;28;20175;-82
2022/07/24 07:42:50;;;;;;;12.15;11.13;;;56.30;4.50;;;;;;4985561;28;20655;-84
2022/07/24 07:45:16;;;;;;;12.43;11.00;;;56.30;4.90;;;;;;4989483;28;20262;-83
2022/07/24 07:47:41;;;;;;;11.95;11.00;;;56.20;14.60;;;;;;4985013;28;20333;-83
2022/07/24 07:50:07;;;;;;;11.10;10.05;;;56.30;4.80;;;;;;4986646;28;20187;-82
2022/07/24 07:52:33;;;;;;;12.38;11.25;;;56.10;4.70;;;;;;4982154;28;20629;-83
2022/07/24 07:54:58;;;;;;;10.85;9.85;;;56.10;4.90;;;;;;4986058;28;20226;-83
2022/07/24 07:57:24;;;;;;;11.60;10.60;;;56.20;4.10;;;;;;4981964;28;20676;-83
2022/07/24 07:59:49;;;;;;;11.90;10.90;;;56.40;4.90;;;;;;4985908;28;20232;-83
2022/07/24 08:02:15;;;;;;;12.90;11.05;;;56.50;4.20;;;;;;4982209;28;20194;-84
2022/07/24 08:04:41;;;;;;;11.48;10.57;;;56.60;4.10;;;;;;4984056;28;20180;-82
2022/07/24 08:07:06;;;;;;;12.27;11.07;;;56.60;4.00;;;;;;4981452;28;20341;-83
2022/07/24 08:09:32;;;;;;;11.48;10.55;;;56.80;4.40;;;;;;4987156;28;20227;-83
2022/07/24 08:11:58;;;;;;;10.98;9.95;;;56.90;3.60;;;;;;4983452;28;20191;-83
2022/07/24 08:14:23;;;;;;;12.88;10.00;;;57.00;3.40;;;;;;4987323;28;20183;-83
2022/07/24 08:16:49;;;;;;;10.15;9.18;;;57.00;3.40;;;;;;4981273;28;20222;-83
2022/07/24 08:19:14;;;;;;;8.88;8.00;;;56.70;3.10;;;;;;4986956;28;20183;-83
2022/07/24 08:21:40;;;;;;;9.18;8.27;;;56.90;2.30;;;;;;4985474;28;20640;-84
2022/07/24 08:24:06;;;;;;;8.75;7.97;;;56.80;2.20;;;;;;4988544;28;20179;-84
2022/07/24 08:26:32;;;;;;;10.40;8.35;;;56.90;1.60;;;;;;4983270;28;20213;-83
2022/07/24 08:28:58;;;;;;;7.88;7.28;;;56.80;1.90;;;;;;4986588;28;20565;-84
2022/07/24 08:31:25;;;;;;;12.25;7.65;;;56.60;1.00;;;;;;4983979;28;20194;-84
2022/07/24 08:33:51;;;;;;;8.45;7.55;;;56.60;1.00;;;;;;4983571;28;20191;-84
2022/07/24 08:36:17;;;;;;;7.90;7.13;;;56.70;1.00;;;;;;4983690;28;20212;-84
2022/07/24 08:38:42;;;;;;;7.50;6.97;;;56.90;1.10;;;;;;4990699;28;20179;-84
2022/07/24 08:41:08;;;;;;;7.47;6.90;;;56.90;1.00;;;;;;4984167;28;20265;-84
2022/07/24 08:43:34;;;;;;;9.45;8.50;;;57.10;1.00;;;;;;4983853;28;20210;-82
2022/07/24 08:46:00;;;;;;;10.57;7.28;;;57.00;1.00;;;;;;4985781;28;20207;-83
2022/07/24 08:48:27;;;;;;;7.22;6.68;;;56.90;1.00;;;;;;5003497;28;20187;-84
2022/07/24 08:50:53;;;;;;;7.55;6.95;;;56.80;1.00;;;;;;4986666;28;20207;-83
2022/07/24 08:53:21;;;;;;;8.23;7.63;;;56.70;1.00;;;;;;4988726;28;20265;-86
2022/07/24 08:55:47;;;;;;;7.35;6.63;;;56.80;1.00;;;;;;4986930;28;20225;-85
2022/07/24 08:58:12;;;;;;;6.85;6.10;;;56.70;1.00;;;;;;4983396;28;20261;-84
2022/07/24 09:00:38;;;;;;;6.32;5.82;;;56.70;1.00;;;;;;4986707;28;20217;-85
2022/07/24 09:03:04;;;;;;;6.53;5.63;;;56.50;1.00;;;;;;4987956;28;20187;-85
2022/07/24 09:05:32;;;;;;;7.53;6.20;;;56.50;1.00;;;;;;4985913;28;20537;-85
2022/07/24 09:08:11;;;;;;;6.45;5.28;;;56.60;1.00;;;;;;4992904;28;20179;-85
2022/07/24 09:10:38;;;;;;;6.40;5.80;;;56.50;1.00;;;;;;4983225;28;20194;-85
2022/07/24 09:13:15;;;;;;;7.53;5.88;;;56.20;6.60;;;;;;4987835;28;20233;-86
2022/07/24 09:15:48;;;;;;;5.40;4.90;;;55.90;1.00;;;;;;4991269;28;20194;-85
2022/07/24 09:18:34;;;;;;;5.95;5.45;;;55.80;1.00;;;;;;4986002;28;20210;-85
2022/07/24 09:21:14;;;;;;;8.23;4.90;;;55.60;1.00;;;;;;4993370;28;20191;-85
2022/07/24 09:23:41;;;;;;;5.60;4.60;;;55.40;1.00;;;;;;4989130;28;20189;-85
2022/07/24 09:26:06;;;;;;;6.15;4.93;;;55.40;1.00;;;;;;5003120;28;20202;-85
2022/07/24 09:28:54;;;;;;;4.80;4.40;;;55.30;1.00;;;;;;4987884;28;20201;-85
2022/07/24 09:31:22;;;;;;;5.23;4.80;;;55.20;1.00;;;;;;4981770;28;20266;-85
2022/07/24 09:33:48;;;;;;;6.03;5.03;;;55.00;1.00;;;;;;4988607;28;20237;-85
2022/07/24 09:36:16;;;;;;;5.63;5.23;;;54.80;1.00;;;;;;4985385;28;20691;-84
2022/07/24 09:38:50;;;;;;;6.00;4.80;;;54.50;1.00;;;;;;4988932;28;20210;-85
2022/07/24 09:41:23;;;;;;;5.30;4.67;;;54.40;1.00;;;;;;4984388;28;20183;-86
2022/07/24 09:44:03;;;;;;;4.40;4.10;;;54.40;1.00;;;;;;4993387;28;20179;-86
2022/07/24 09:46:29;;;;;;;5.60;5.10;;;54.30;1.00;;;;;;4989601;28;20301;-84
2022/07/24 09:48:58;;;;;;;6.73;4.50;;;54.10;1.00;;;;;;4981874;28;20614;-86
2022/07/24 09:51:25;;;;;;;5.27;4.87;;;52.80;1.00;;;;;;4983005;28;20521;-85
2022/07/24 09:53:59;;;;;;;5.50;5.00;;;52.00;1.00;;;;;;4986319;28;20449;-85
2022/07/24 09:56:27;;;;;;;5.10;4.70;;;51.30;1.00;;;;;;4992941;28;20474;-85
2022/07/24 09:58:55;;;;;;;5.37;4.87;;;51.40;1.00;;;;;;4984670;28;20438;-85
2022/07/24 10:01:23;;;;;;;4.97;4.57;;;51.40;1.00;;;;;;4984938;28;20430;-86
2022/07/24 10:03:51;;;;;;;6.23;5.63;;;51.50;1.00;;;;;;4984868;28;20440;-85
2022/07/24 10:06:19;;;;;;;7.37;4.60;;;51.50;1.00;;;;;;4983573;28;20449;-85
2022/07/24 10:08:48;;;;;;;6.73;4.90;;;51.50;1.00;;;;;;4979185;28;20474;-85
2022/07/24 10:11:14;;;;;;;5.07;4.40;;;51.50;1.00;;;;;;4992510;28;20500;-84
2022/07/24 10:13:40;;;;;;;4.60;4.20;;;51.80;1.00;;;;;;4983857;28;20446;-85
2022/07/24 10:16:12;;;;;;;5.63;4.33;;;51.80;1.00;;;;;;4986737;28;20476;-85
2022/07/24 10:18:49;;;;;;;5.70;4.17;;;51.60;1.00;;;;;;4992169;28;20269;-86
2022/07/24 10:21:16;;;;;;;6.47;4.50;;;50.90;1.00;;;;;;4989012;28;20434;-85
2022/07/24 10:24:03;;;;;;;4.50;4.13;;;50.70;1.00;;;;;;4986889;28;20434;-85
2022/07/24 10:26:45;;;;;;;5.30;4.50;;;50.80;1.00;;;;;;4996752;28;20919;-85
2022/07/24 10:29:23;;;;;;;4.43;3.83;;;50.80;1.00;;;;;;4988747;28;20985;-84
2022/07/24 10:31:58;;;;;;;5.10;4.60;;;50.80;1.00;;;;;;4993967;28;20446;-86
2022/07/24 10:34:23;;;;;;;5.67;4.53;;;50.80;1.00;;;;;;4989181;28;20483;-85
2022/07/24 10:37:09;;;;;;;5.40;4.53;;;51.00;1.00;;;;;;4989060;28;20465;-85
2022/07/24 10:39:47;;;;;;;5.07;4.47;;;51.00;1.00;;;;;;4997372;28;20921;-85
2022/07/24 10:42:13;;;;;;;4.50;3.87;;;51.30;1.00;;;;;;4987514;28;20919;-85
2022/07/24 10:44:39;;;;;;;4.90;4.43;;;51.30;1.00;;;;;;4991417;28;20945;-85
2022/07/24 10:47:06;;;;;;;5.47;4.50;;;50.90;1.00;;;;;;5003813;28;20470;-85
2022/07/24 10:49:49;;;;;;;8.97;4.37;;;50.70;1.00;;;;;;4991027;28;20568;-85
2022/07/24 10:52:41;;;;;;;4.77;4.27;;;50.20;1.00;;;;;;4985186;28;20465;-85
2022/07/24 10:55:24;;;;;;;4.20;3.87;;;49.40;1.00;;;;;;4987060;28;20825;-85
2022/07/24 10:58:16;;;;;;;5.63;4.10;;;49.30;1.00;;;;;;4988514;28;20477;-85
2022/07/24 11:00:46;;;;;;;4.40;4.00;;;49.50;1.00;;;;;;4991449;28;21065;-85
2022/07/24 11:03:22;;;;;;;4.40;3.77;;;49.50;1.00;;;;;;4986529;28;20430;-85
2022/07/24 11:06:10;;;;;;;4.07;3.70;;;49.60;1.00;;;;;;4984979;28;20463;-85
2022/07/24 11:08:45;;;;;;;4.70;3.97;;;49.60;1.00;;;;;;5000678;28;20448;-85
2022/07/24 11:11:18;;;;;;;4.70;4.30;;;49.50;1.00;;;;;;4988025;28;20527;-85
2022/07/24 11:13:45;;;;;;;6.23;4.20;;;49.30;1.00;;;;;;4987503;28;20462;-85
2022/07/24 11:16:11;;;;;;;4.53;3.70;;;49.10;1.00;;;;;;4988743;28;20473;-84
2022/07/24 11:18:49;;;;;;;4.10;3.77;;;49.20;1.00;;;;;;4988895;28;20441;-84
2022/07/24 11:21:35;;;;;;;4.30;3.90;;;48.90;1.00;;;;;;4986389;28;20647;-84
2022/07/24 11:24:27;;;;;;;4.73;3.87;;;48.90;1.00;;;;;;4984477;28;20464;-83
2022/07/24 11:27:07;;;;;;;5.73;4.00;;;48.80;1.00;;;;;;4991013;28;20480;-84
2022/07/24 11:29:36;;;;;;;4.17;3.87;;;48.60;1.00;;;;;;4983120;28;20515;-84
2022/07/24 11:32:03;;;;;;;4.33;3.87;;;48.60;1.00;;;;;;4991497;28;20441;-84
2022/07/24 11:34:30;;;;;;;4.70;4.10;;;48.70;1.00;;;;;;4987061;28;20450;-84
2022/07/24 11:36:57;;;;;;;4.40;4.00;;;48.60;1.00;;;;;;4990045;28;20990;-84
2022/07/24 11:39:34;;;;;;;4.70;4.20;;;48.60;1.00;;;;;;4991518;28;20815;-84
2022/07/24 11:42:02;;;;;;;5.03;4.63;;;48.20;1.00;;;;;;4989219;28;20449;-84
2022/07/24 11:44:35;;;;;;;4.20;3.90;;;47.90;1.00;;;;;;4991504;28;20445;-84
2022/07/24 11:47:07;;;;;;;6.67;4.10;;;47.80;1.00;;;;;;4987841;28;20926;-84
2022/07/24 11:49:47;;;;;;;4.10;3.67;;;47.80;1.00;;;;;;4990629;28;20451;-84
2022/07/24 11:52:18;;;;;;;4.27;3.87;;;47.60;1.00;;;;;;4994153;28;20935;-84
2022/07/24 11:54:45;;;;;;;7.10;4.17;;;47.50;1.00;;;;;;4992850;28;21005;-84
2022/07/24 11:57:28;;;;;;;5.30;3.60;;;47.50;1.00;;;;;;4991731;28;20481;-84
2022/07/24 11:59:55;;;;;;;4.40;4.00;;;47.50;1.00;;;;;;4989341;28;20943;-84
2022/07/24 12:02:21;;;;;;;6.90;4.30;;;47.60;1.00;;;;;;4988249;28;20439;-84
2022/07/24 12:04:48;;;;;;;6.10;4.50;;;47.80;1.00;;;;;;4994720;28;20470;-84
2022/07/24 12:07:23;;;;;;;5.53;4.87;;;47.90;1.00;;;;;;4985375;28;20517;-84
2022/07/24 12:09:50;;;;;;;5.17;4.43;;;47.50;1.00;;;;;;4985681;28;20434;-84
2022/07/24 12:12:24;;;;;;;6.53;4.43;;;47.20;1.00;;;;;;4986972;28;20426;-84
2022/07/24 12:15:02;;;;;;;6.13;4.43;;;47.20;1.00;;;;;;4986057;28;20439;-84
2022/07/24 12:17:27;;;;;;;4.57;4.17;;;46.80;1.00;;;;;;4989922;28;20470;-84
2022/07/24 12:19:55;;;;;;;4.57;4.13;;;46.50;1.00;;;;;;4981796;28;20530;-84
2022/07/24 12:22:23;;;;;;;4.23;3.87;;;46.40;1.00;;;;;;4994115;28;20454;-83
2022/07/24 12:24:50;;;;;;;4.53;4.13;;;46.50;1.00;;;;;;4992846;28;20443;-84
2022/07/24 12:27:40;;;;;;;4.90;4.50;;;46.30;1.00;;;;;;4994821;28;20478;-84
2022/07/24 12:30:22;;;;;;;4.60;4.20;;;46.20;1.00;;;;;;4977066;28;20450;-84
2022/07/24 12:33:00;;;;;;;4.27;3.67;;;46.10;1.00;;;;;;4995740;28;20423;-84
2022/07/24 12:35:27;;;;;;;4.33;3.93;;;46.00;1.00;;;;;;4989816;28;20458;-84
2022/07/24 12:37:53;;;;;;;5.10;4.33;;;45.80;1.00;;;;;;4995953;28;20485;-84
2022/07/24 12:40:31;;;;;;;5.40;3.80;;;45.40;1.00;;;;;;4995857;28;20439;-84
2022/07/24 12:43:02;;;;;;;4.80;4.40;;;45.20;1.00;;;;;;4996306;28;20461;-84
2022/07/24 12:45:28;;;;;;;4.00;3.70;;;44.90;1.00;;;;;;4988179;28;20434;-84
2022/07/24 12:48:20;;;;;;;4.13;3.73;;;44.80;1.00;;;;;;4995426;28;20446;-84